Observations for FAIRFORD RAF, United Kingdom (EGVA)

EGVA 221223Z AUTO 13009KT 9999 SCT015 BKN036 20/17 A3006 RMK AO2 SLP181
EGVA 221158Z AUTO 13007KT 9999 BKN015 BKN190 21/17 A3007 RMK AO2 CIG 015V037 BKN015 V SCT SLP184 60000 T02050173 10206 20163 57017  
EGVA 221133Z AUTO 11009KT 9999 BKN015 BKN037 21/17 A3008 RMK AO2 CIG 015V037 BKN015 V SCT SLP187
EGVA 221143Z AUTO 13008KT 9999 SCT015 BKN036 BKN190 21/17 A3007 RMK AO2 CIG 015RWY09 SLP184
EGVA 221108Z AUTO 14008KT 9999 SCT014 BKN036 20/18 A3009 RMK AO2 SLP191
EGVA 221103Z AUTO 14004KT 9999 SCT013 BKN018 BKN180 20/18 A3010 RMK AO2 CIG 013V018 SLP194
EGVA 221153Z AUTO 12006KT 9999 BKN015 BKN190 21/17 A3007 RMK AO2 CIG 015V037 BKN015 V SCT SLP184
EGVA 221058Z AUTO 14005KT 9999 BKN014 BKN180 20/19 A3010 RMK AO2 SLP194 
EGVA 220958Z AUTO 15004KT 9999 BKN010 19/18 A3011 RMK AO2 BKN V OVC SLP197 T01880183
EGVA 220858Z AUTO 13005KT 9999 OVC008 17/17 A3012 RMK AO2 SLP201 60000 52002
EGVA 220836Z AUTO 13003KT 9999 OVC007 17/17 A3012 RMK AO2 SLP201
EGVA 220806Z AUTO 14003KT 9999 OVC006 17/16 A3011 RMK AO2 CIG 005V007 SLP198
EGVA 220803Z AUTO 00000KT 9999 OVC007 17/16 A3012 RMK AO2 CIG 005V007 SLP201
EGVA 220758Z AUTO 13003KT 9999 OVC005 17/16 A3012 RMK AO2 RAB29E30DZB30E32RAB32E39DZB39E40RAB40E42DZB44E45 SLP201 P0000 T01650163   
EGVA 220729Z AUTO 00000KT 9999 -RA OVC004 16/16 A3012 RMK AO2 RAB29 SLP201
EGVA 220742Z AUTO 20003KT 9999 OVC005 16/16 A3012 RMK AO2 RAB29E30DZB30E32RAB32E39DZB39E40RAB40E42 SLP201
EGVA 220744Z AUTO 19003KT 9999 -DZ OVC005 16/16 A3012 RMK AO2 RAB29E30DZB30E32RAB32E39DZB39E40RAB40E42DZB44 SLP201
EGVA 220718Z AUTO 15004KT 9000 BR OVC004 16/16 A3012 RMK AO2 SLP201
EGVA 220745Z AUTO 18003KT 9999 OVC005 16/16 A3012 RMK AO2 RAB29E30DZB30E32RAB32E39DZB39E40RAB40E42DZB44E45 SLP201
EGVA 220658Z AUTO 16005KT 6000 BR OVC003 17/16 A3012 RMK AO2 SLP201 
EGVA 220626Z AUTO 15005KT 2000 BR OVC002 17/17 A3011 RMK AO2 VIS 1200V2000 SLP197
EGVA 220631Z AUTO 14005KT 2400 BR OVC002 17/17 A3011 RMK AO2 VIS 1600V2400 SLP197
EGVA 220641Z AUTO 15005KT 3200 BR OVC003 17/16 A3011 RMK AO2 VIS 2400V3200 SLP197
EGVA 220605Z AUTO 12003KT 0800 R09/0800 FG VV002 17/16 A3011 RMK AO2 VIS 2800 RWY09 SLP197
EGVA 220609Z AUTO 13003KT 0800 R09/0900 FG VV002 17/16 A3011 RMK AO2 SLP197
EGVA 220613Z AUTO 14003KT 1200 R09/1000 BR VV002 17/16 A3011 RMK AO2 VIS 3200 RWY09 SLP197
EGVA 220622Z AUTO 14005KT 1600 R09/P1500 BR VV002 17/16 A3011 RMK AO2 VIS 4000 RWY09 SLP197
EGVA 220600Z AUTO 13003KT 0800 R09/0700 FG VV001 17/16 A3011 RMK AO2 VIS 2800 RWY09 SLP197
EGVA 220602Z AUTO 12004KT 0800 R09/0750 FG VV002 17/16 A3011 RMK AO2 VIS 2800 RWY09 SLP197
EGVA 220651Z AUTO 14005KT 4800 BR OVC003 17/16 A3012 RMK AO2 SLP201
EGVA 220558Z AUTO 14003KT 0800 R09/0650 FG VV001 17/16 A3011 RMK AO2 SLP197 60000 T01650163 10172 20156 53001   
EGVA 220526Z AUTO 14004KT 0800 R09/0650 FG VV002 17/16 A3011 RMK AO2 SLP197
EGVA 220532Z AUTO 14004KT 0400 R09/0550 FG VV002 17/16 A3011 RMK AO2 SLP197
EGVA 220505Z AUTO 18004KT 0800 R09/0750 FG VV001 17/17 A3011 RMK AO2 VIS 0800V1600 SLP197
EGVA 220511Z AUTO 18004KT 0800 R09/0700 FG VV002 17/17 A3011 RMK AO2 SLP197
EGVA 220514Z AUTO 17004KT 0800 R09/0750 FG VV002 17/17 A3011 RMK AO2 SLP197
EGVA 220518Z AUTO 16003KT 0800 R09/0700 FG VV002 17/17 A3011 RMK AO2 SLP197
EGVA 220521Z AUTO 15004KT 0800 R09/0750 FG VV002 17/17 A3011 RMK AO2 SLP197
EGVA 220523Z AUTO 14004KT 0800 R09/0700 FG VV002 17/16 A3011 RMK AO2 SLP197
EGVA 220503Z AUTO 17004KT 1200 R09/0800 BR VV001 17/17 A3011 RMK AO2 SLP197
EGVA 220555Z AUTO 15004KT 0800 R09/0600 FG VV001 17/16 A3011 RMK AO2 SLP197
EGVA 220458Z AUTO 17004KT 1600 R09/0800 BR VV001 17/17 A3011 RMK AO2 VIS 0800V1600 SLP197   
EGVA 220438Z AUTO 13003KT 0800 R09/0400 FG VV001 17/17 A3011 RMK AO2 SLP197
EGVA 220446Z AUTO 15005KT 0800 R09/0500 FG VV001 17/17 A3011 RMK AO2 VIS 4000 RWY09 SLP197
EGVA 220451Z AUTO 15004KT 0800 R09/0600 FG VV001 17/17 A3010 RMK AO2 SLP194
EGVA 220454Z AUTO 15004KT 1200 R09/0700 BR VV001 17/17 A3010 RMK AO2 SLP194
EGVA 220455Z AUTO 16004KT 1200 R09/0750 BR VV001 17/17 A3011 RMK AO2 SLP197
EGVA 220457Z AUTO 17004KT 1200 R09/0800 BR VV001 17/17 A3011 RMK AO2 SLP197
EGVA 220358Z AUTO 00000KT 0400 R09/0250 FG VV001 17/17 A3010 RMK AO2 SLP194 T01710168   
EGVA 220258Z AUTO 00000KT 0400 R09/0250 FG VV001 17/17 A3011 RMK AO2 SLP197 60000 T01700167 56004   
EGVA 220158Z AUTO 00000KT M0400 R09/0250 FG VV001 17/17 A3011 RMK AO2 SLP198 T01710168  
EGVA 220058Z AUTO 04003KT M0400 R09/0250 FG VV001 17/16 A3012 RMK AO2 DZB41E51 SLP201 P0000 
EGVA 220041Z AUTO 00000KT 0400 R09/0250 -DZ FG CLR 16/16 A3012 RMK AO2 DZB41 SLP202
EGVA 220051Z AUTO 00000KT 0400 R09/0250 FG CLR 17/16 A3012 RMK AO2 DZB41E51 SLP201
EGVA 212358Z AUTO 00000KT M0400 R09/0200 FG FEW060 17/16 A3012 RMK AO2 SLP202 T01650160 10199 20165 402040134 57005 
EGVA 212331Z AUTO 06003KT 0800 R09/0450 FG BKN060 17/16 A3013 RMK AO2 SLP205
EGVA 212336Z AUTO 00000KT 0400 R09/0350 FG BKN060 17/16 A3013 RMK AO2 SLP205
EGVA 212305Z AUTO 00000KT 1600 R09/P1500 BR FEW065 17/17 A3013 RMK AO2 VIS 1600V9000 SLP205
EGVA 212306Z AUTO 00000KT 1200 R09/1300 BR FEW065 17/17 A3013 RMK AO2 VIS 1200V9000 SLP205
EGVA 212308Z AUTO 00000KT 1200 R09/0900 BR SCT060 17/17 A3013 RMK AO2 VIS 1200V9000 SLP205
EGVA 212309Z AUTO 00000KT 0800 R09/0750 FG SCT060 17/17 A3013 RMK AO2 VIS 0800V9000 SLP205
EGVA 212310Z AUTO 00000KT 0800 R09/0600 FG SCT060 17/17 A3013 RMK AO2 VIS 0800V8000 SLP205
EGVA 212311Z AUTO 00000KT 0800 R09/0450 FG SCT060 17/17 A3013 RMK AO2 VIS 0800V8000 SLP205

EGVA 212303Z AUTO 00000KT 2400 BR FEW065 17/17 A3013 RMK AO2 VIS 2400V9000 SLP205
EGVA 212258Z AUTO 00000KT 9000 BR SCT065 17/17 A3013 RMK AO2 SLP205 T01740169   
EGVA 212226Z AUTO 00000KT 2400 R09/1300 BR OVC065 17/17 A3013 RMK AO2 VIS 1600V2400 SLP205
EGVA 212231Z AUTO 08004KT 2000 R09/1100 BR OVC065 17/17 A3013 RMK AO2 SLP205
EGVA 212234Z AUTO 07004KT 2400 BR BKN065 17/17 A3013 RMK AO2 SLP205
EGVA 212239Z AUTO 09003KT 4800 BR OVC065 17/17 A3013 RMK AO2 SLP205
EGVA 212244Z AUTO 00000KT 9999 BKN065 17/17 A3013 RMK AO2 SLP205
EGVA 212207Z AUTO 00000KT 1200 R09/0750 BR BKN065 18/17 A3013 RMK AO2 SLP205
EGVA 212209Z AUTO 08003KT 1200 R09/0800 BR BKN065 18/17 A3013 RMK AO2 SLP205
EGVA 212211Z AUTO 07003KT 1200 R09/0750 BR BKN065 18/17 A3013 RMK AO2 SLP205
EGVA 212216Z AUTO 00000KT 1600 R09/0900 BR BKN065 18/17 A3013 RMK AO2 SLP205
EGVA 212217Z AUTO 00000KT 1600 R09/1000 BR OVC065 18/17 A3013 RMK AO2 SLP205
EGVA 212221Z AUTO 00000KT 2000 R09/1200 BR OVC065 18/17 A3013 RMK AO2 VIS 1200V2000 SLP205
EGVA 212200Z AUTO 00000KT 1600 R09/0900 BR BKN065 18/17 A3014 RMK AO2 SLP208
EGVA 212202Z AUTO 00000KT 1600 R09/0800 BR BKN065 18/17 A3013 RMK AO2 SLP205
EGVA 212158Z AUTO 00000KT 1600 R09/0900 BR SCT065 18/17 A3014 RMK AO2 VIS 1200V2000 SLP208  
EGVA 212138Z AUTO 00000KT 3200 BR FEW065 18/17 A3014 RMK AO2 VIS 3200V9999 SLP208
EGVA 212143Z AUTO 00000KT 3200 BR FEW065 18/17 A3014 RMK AO2 VIS 2400V6000 SLP208
EGVA 212113Z AUTO 00000KT 9999 SCT036 18/17 A3014 RMK AO2 SLP208
EGVA 212103Z AUTO 00000KT 9999 BKN036 18/17 A3014 RMK AO2 SLP208
EGVA 212147Z AUTO 00000KT 1600 R09/1400 BR FEW065 18/17 A3014 RMK AO2 VIS 1600V6000 SLP208
EGVA 212148Z AUTO 00000KT 2000 R09/1400 BR FEW065 18/17 A3014 RMK AO2 VIS 1600V3200 SLP208
EGVA 212149Z AUTO 00000KT 2000 BR FEW070 18/17 A3014 RMK AO2 VIS 1600V3200 SLP208
EGVA 212150Z AUTO 00000KT 1600 R09/1300 BR FEW065 18/17 A3013 RMK AO2 VIS 1600V3200 SLP205
EGVA 212153Z AUTO 00000KT 1200 R09/0800 BR SCT065 18/17 A3013 RMK AO2 VIS 1200V3200 SLP205
EGVA 212058Z AUTO 00000KT 9999 SCT036 19/18 A3014 RMK AO2 SLP208 T01860176 52007

EGVA 212058Z AUTO 00000KT 9999 SCT036 19/18 A3014 RMK AO2 SLP208 T01860176 52007
EGVA 212048Z AUTO 00000KT 9999 SCT034 19/18 A3014 RMK AO2 SLP208
EGVA 211958Z AUTO 11005KT 9999 BKN027 19/18 A3013 RMK AO2 CIG 019 RWY09 SLP205 T01910177
EGVA 211923Z AUTO 00000KT 9999 OVC019 19/17 A3013 RMK AO2 OVC V BKN SLP205
EGVA 211948Z AUTO 10005KT 9999 SCT020 BKN026 19/17 A3013 RMK AO2 CIG 019V026 CIG 020 RWY09 SLP205
EGVA 211858Z AUTO 10003KT 9999 BKN024 BKN031 20/18 A3012 RMK AO2 SLP202 T01950175   
EGVA 211758Z AUTO 08005KT 9999 BKN032 OVC040 20/18 A3012 RMK AO2 SLP202 60000 T01990175 10204 20172 57006   
EGVA 211658Z AUTO 08005KT 9999 SCT026 OVC036 20/17 A3013 RMK AO2 RAE08 SLP205 P0000 
EGVA 211608Z AUTO 00000KT 9999 BKN031 20/17 A3013 RMK AO2 RAE08 SLP205
EGVA 211558Z AUTO 11003KT 9999 -RA SCT024 BKN032 20/17 A3013 RMK AO2 RAB40E41DZB41E58RAB58 SLP205 P0000 T02030171   
EGVA 211540Z AUTO 08003KT 9999 -RA OVC021 20/17 A3013 RMK AO2 RAB40 SLP205
EGVA 211518Z AUTO 00000KT 9999 SCT015 OVC020 20/17 A3013 RMK AO2 CIG 015V021 SLP205
EGVA 211458Z AUTO 00000KT 9999 BKN015 OVC022 20/17 A3014 RMK AO2 SLP208 60000 T02020166 56007   
EGVA 211438Z AUTO 00000KT 9999 BKN015 OVC023 20/17 A3014 RMK AO2 SLP208
EGVA 211358Z AUTO 29004KT 9999 OVC012 19/17 A3014 RMK AO2 SLP208 T01930165  
EGVA 211308Z AUTO 00000KT 9999 OVC010 18/16 A3014 RMK AO2 SLP209
EGVA 211258Z AUTO 00000KT 9999 OVC009 18/16 A3015 RMK AO2 DZB09E19RAB19E29DZB29E30RAB30E34DZB34E35DZB40E50 SLP212 P0000 T01810160   
EGVA 211235Z AUTO 00000KT 9999 OVC009 18/16 A3015 RMK AO2 DZB09E19RAB19E29DZB29E30RAB30E34DZB34E35 SLP212
EGVA 211240Z AUTO 00000KT 9999 -DZ OVC009 18/16 A3015 RMK AO2 DZB09E19RAB19E29DZB29E30RAB30E34DZB34E35DZB40 SLP212
EGVA 211209Z AUTO 00000KT 9999 -DZ OVC007 17/16 A3015 RMK AO2 DZB09 SLP213
EGVA 211219Z AUTO 00000KT 9999 -RA OVC008 18/16 A3015 RMK AO2 DZB09E19RAB19 SLP212
EGVA 211250Z AUTO 00000KT 9999 OVC009 18/16 A3015 RMK AO2 DZB09E19RAB19E29DZB29E30RAB30E34DZB34E35DZB40E50 SLP212
EGVA 211158Z AUTO 00000KT 9999 OVC007 17/16 A3016 RMK AO2 SLP216 60000 70034 T01710155 10171 20139 50000